sensor_id;sensor_type;location;lat;lon;timestamp;pressure;altitude;pressure_sealevel;temperature;humidity
69780;BME280;57052;55.602;38.096;2024-02-16T00:00:08;102177.66;;;-6.26;62.83
69780;BME280;57052;55.602;38.096;2024-02-16T00:02:37;102176.72;;;-6.25;63.55
69780;BME280;57052;55.602;38.096;2024-02-16T00:05:04;102171.56;;;-6.26;63.00
69780;BME280;57052;55.602;38.096;2024-02-16T00:07:31;102171.56;;;-6.26;63.24
69780;BME280;57052;55.602;38.096;2024-02-16T00:09:57;102168.94;;;-6.26;63.67
69780;BME280;57052;55.602;38.096;2024-02-16T00:12:23;102142.31;;;-6.34;63.56
69780;BME280;57052;55.602;38.096;2024-02-16T00:14:48;102151.66;;;-6.30;63.27
69780;BME280;57052;55.602;38.096;2024-02-16T00:17:14;102154.91;;;-6.27;63.77
69780;BME280;57052;55.602;38.096;2024-02-16T00:19:40;102120.25;;;-6.44;63.48
69780;BME280;57052;55.602;38.096;2024-02-16T00:22:06;102155.63;;;-6.25;63.43
69780;BME280;57052;55.602;38.096;2024-02-16T00:24:34;102156.34;;;-6.23;63.48
69780;BME280;57052;55.602;38.096;2024-02-16T00:27:02;102149.44;;;-6.24;63.44
69780;BME280;57052;55.602;38.096;2024-02-16T00:29:31;102148.59;;;-6.24;63.67
69780;BME280;57052;55.602;38.096;2024-02-16T00:31:57;102146.78;;;-6.24;63.49
69780;BME280;57052;55.602;38.096;2024-02-16T00:34:25;102147.72;;;-6.25;63.18
69780;BME280;57052;55.602;38.096;2024-02-16T00:36:50;102138.97;;;-6.25;62.87
69780;BME280;57052;55.602;38.096;2024-02-16T00:39:17;102142.47;;;-6.25;63.36
69780;BME280;57052;55.602;38.096;2024-02-16T00:41:43;102127.22;;;-6.32;63.22
69780;BME280;57052;55.602;38.096;2024-02-16T00:44:08;102141.03;;;-6.29;63.12
69780;BME280;57052;55.602;38.096;2024-02-16T00:46:37;102135.75;;;-6.29;62.91
69780;BME280;57052;55.602;38.096;2024-02-16T00:49:03;102128.66;;;-6.28;63.64
69780;BME280;57052;55.602;38.096;2024-02-16T00:51:29;102125.22;;;-6.29;63.78
69780;BME280;57052;55.602;38.096;2024-02-16T00:53:55;102122.91;;;-6.33;63.65
69780;BME280;57052;55.602;38.096;2024-02-16T00:56:20;102119.31;;;-6.32;63.43
69780;BME280;57052;55.602;38.096;2024-02-16T00:58:46;102117.19;;;-6.27;63.65
69780;BME280;57052;55.602;38.096;2024-02-16T01:01:12;102118.25;;;-6.30;63.26
69780;BME280;57052;55.602;38.096;2024-02-16T01:03:38;102109.41;;;-6.29;63.13
69780;BME280;57052;55.602;38.096;2024-02-16T01:06:05;102111.19;;;-6.29;63.06
69780;BME280;57052;55.602;38.096;2024-02-16T01:08:31;102100.88;;;-6.32;63.54
69780;BME280;57052;55.602;38.096;2024-02-16T01:10:57;102106.78;;;-6.29;63.06
69780;BME280;57052;55.602;38.096;2024-02-16T01:13:22;102097.19;;;-6.30;63.00
69780;BME280;57052;55.602;38.096;2024-02-16T01:15:48;102110.34;;;-6.30;63.23
69780;BME280;57052;55.602;38.096;2024-02-16T01:18:14;102104.13;;;-6.29;63.30
69780;BME280;57052;55.602;38.096;2024-02-16T01:20:40;102102.44;;;-6.30;62.95
69780;BME280;57052;55.602;38.096;2024-02-16T01:23:06;102091.63;;;-6.38;62.90
69780;BME280;57052;55.602;38.096;2024-02-16T01:25:32;102109.50;;;-6.30;63.54
69780;BME280;57052;55.602;38.096;2024-02-16T01:27:58;102105.22;;;-6.31;62.78
69780;BME280;57052;55.602;38.096;2024-02-16T01:30:24;102107.00;;;-6.32;63.00
69780;BME280;57052;55.602;38.096;2024-02-16T01:32:50;102110.47;;;-6.31;62.78
69780;BME280;57052;55.602;38.096;2024-02-16T01:35:16;102103.88;;;-6.37;63.41
69780;BME280;57052;55.602;38.096;2024-02-16T01:37:42;102107.84;;;-6.31;63.46
69780;BME280;57052;55.602;38.096;2024-02-16T01:40:11;102107.00;;;-6.32;63.25
69780;BME280;57052;55.602;38.096;2024-02-16T01:42:43;102112.97;;;-6.30;63.61
69780;BME280;57052;55.602;38.096;2024-02-16T01:45:10;102114.78;;;-6.30;63.41
69780;BME280;57052;55.602;38.096;2024-02-16T01:47:37;102098.69;;;-6.38;63.33
69780;BME280;57052;55.602;38.096;2024-02-16T01:50:03;102124.47;;;-6.31;63.06
69780;BME280;57052;55.602;38.096;2024-02-16T01:52:30;102100.09;;;-6.45;63.59
69780;BME280;57052;55.602;38.096;2024-02-16T01:54:57;102116.81;;;-6.34;62.94
69780;BME280;57052;55.602;38.096;2024-02-16T01:57:23;102111.53;;;-6.34;63.18
69780;BME280;57052;55.602;38.096;2024-02-16T01:59:49;102113.34;;;-6.34;62.86
69780;BME280;57052;55.602;38.096;2024-02-16T02:02:15;102098.44;;;-6.46;63.16
69780;BME280;57052;55.602;38.096;2024-02-16T02:04:41;102109.34;;;-6.40;63.17
69780;BME280;57052;55.602;38.096;2024-02-16T02:07:14;102111.78;;;-6.37;62.81
69780;BME280;57052;55.602;38.096;2024-02-16T02:09:40;102119.78;;;-6.38;63.00
69780;BME280;57052;55.602;38.096;2024-02-16T02:12:07;102122.19;;;-6.35;63.25
69780;BME280;57052;55.602;38.096;2024-02-16T02:14:34;102127.34;;;-6.34;63.34
69780;BME280;57052;55.602;38.096;2024-02-16T02:16:59;102126.38;;;-6.33;62.85
69780;BME280;57052;55.602;38.096;2024-02-16T02:19:26;102100.72;;;-6.42;63.23
69780;BME280;57052;55.602;38.096;2024-02-16T02:21:52;102065.44;;;-6.63;62.86
69780;BME280;57052;55.602;38.096;2024-02-16T02:24:17;102114.06;;;-6.32;63.30
69780;BME280;57052;55.602;38.096;2024-02-16T02:26:43;102092.00;;;-6.42;63.03
69780;BME280;57052;55.602;38.096;2024-02-16T02:29:09;102111.28;;;-6.31;62.77
69780;BME280;57052;55.602;38.096;2024-02-16T02:31:34;102113.13;;;-6.31;63.27
69780;BME280;57052;55.602;38.096;2024-02-16T02:34:00;102110.47;;;-6.31;63.29
69780;BME280;57052;55.602;38.096;2024-02-16T02:36:26;102103.50;;;-6.32;63.02
69780;BME280;57052;55.602;38.096;2024-02-16T02:38:52;102110.56;;;-6.33;62.85
69780;BME280;57052;55.602;38.096;2024-02-16T02:41:17;102111.41;;;-6.32;63.21
69780;BME280;57052;55.602;38.096;2024-02-16T02:43:45;102112.38;;;-6.33;63.37
69780;BME280;57052;55.602;38.096;2024-02-16T02:46:17;102119.44;;;-6.34;62.96
69780;BME280;57052;55.602;38.096;2024-02-16T02:48:44;102102.53;;;-6.42;63.13
69780;BME280;57052;55.602;38.096;2024-02-16T02:51:10;102120.25;;;-6.33;62.92
69780;BME280;57052;55.602;38.096;2024-02-16T02:53:36;102120.16;;;-6.32;62.79
69780;BME280;57052;55.602;38.096;2024-02-16T02:56:02;102103.38;;;-6.42;62.99
69780;BME280;57052;55.602;38.096;2024-02-16T02:58:28;102099.16;;;-6.44;62.88
69780;BME280;57052;55.602;38.096;2024-02-16T03:00:54;102116.69;;;-6.32;63.47
69780;BME280;57052;55.602;38.096;2024-02-16T03:03:20;102119.31;;;-6.32;62.92
69780;BME280;57052;55.602;38.096;2024-02-16T03:05:46;102119.31;;;-6.32;62.52
69780;BME280;57052;55.602;38.096;2024-02-16T03:08:12;102120.16;;;-6.32;62.66
69780;BME280;57052;55.602;38.096;2024-02-16T03:10:38;102125.44;;;-6.32;63.08
69780;BME280;57052;55.602;38.096;2024-02-16T03:13:04;102119.19;;;-6.31;63.42
69780;BME280;57052;55.602;38.096;2024-02-16T03:15:33;102119.09;;;-6.29;63.18
69780;BME280;57052;55.602;38.096;2024-02-16T03:17:59;102117.31;;;-6.29;62.84
69780;BME280;57052;55.602;38.096;2024-02-16T03:20:24;102114.06;;;-6.32;63.28
69780;BME280;57052;55.602;38.096;2024-02-16T03:22:50;102118.25;;;-6.30;63.20
69780;BME280;57052;55.602;38.096;2024-02-16T03:25:16;102120.75;;;-6.28;62.80
69780;BME280;57052;55.602;38.096;2024-02-16T03:27:42;102104.94;;;-6.39;63.12
69780;BME280;57052;55.602;38.096;2024-02-16T03:30:09;102101.59;;;-6.41;63.39
69780;BME280;57052;55.602;38.096;2024-02-16T03:32:35;102126.16;;;-6.30;63.04
69780;BME280;57052;55.602;38.096;2024-02-16T03:35:01;102125.31;;;-6.30;62.69
69780;BME280;57052;55.602;38.096;2024-02-16T03:37:27;102120.75;;;-6.28;63.46
69780;BME280;57052;55.602;38.096;2024-02-16T03:39:53;102123.53;;;-6.30;63.46
69780;BME280;57052;55.602;38.096;2024-02-16T03:42:21;102123.53;;;-6.30;62.70
69780;BME280;57052;55.602;38.096;2024-02-16T03:44:47;102127.00;;;-6.29;62.69
69780;BME280;57052;55.602;38.096;2024-02-16T03:47:13;102125.44;;;-6.32;63.29
69780;BME280;57052;55.602;38.096;2024-02-16T03:49:39;102121.97;;;-6.32;63.25
69780;BME280;57052;55.602;38.096;2024-02-16T03:52:05;102125.09;;;-6.27;62.83
69780;BME280;57052;55.602;38.096;2024-02-16T03:54:30;102127.72;;;-6.27;62.77
69780;BME280;57052;55.602;38.096;2024-02-16T03:56:57;102119.81;;;-6.27;63.24
69780;BME280;57052;55.602;38.096;2024-02-16T03:59:23;102129.41;;;-6.26;62.79
69780;BME280;57052;55.602;38.096;2024-02-16T04:01:49;102126.78;;;-6.26;63.34
69780;BME280;57052;55.602;38.096;2024-02-16T04:04:15;102125.81;;;-6.25;63.19
69780;BME280;57052;55.602;38.096;2024-02-16T04:06:41;102125.94;;;-6.27;63.07
69780;BME280;57052;55.602;38.096;2024-02-16T04:09:07;102126.03;;;-6.28;63.12
69780;BME280;57052;55.602;38.096;2024-02-16T04:11:34;102130.22;;;-6.26;63.34
69780;BME280;57052;55.602;38.096;2024-02-16T04:13:59;102136.34;;;-6.25;63.11
69780;BME280;57052;55.602;38.096;2024-02-16T04:16:25;102136.34;;;-6.25;63.31
69780;BME280;57052;55.602;38.096;2024-02-16T04:18:51;102131.91;;;-6.25;63.20
69780;BME280;57052;55.602;38.096;2024-02-16T04:21:17;102132.78;;;-6.24;62.62
69780;BME280;57052;55.602;38.096;2024-02-16T04:23:44;102136.13;;;-6.22;63.22
69780;BME280;57052;55.602;38.096;2024-02-16T04:26:09;102123.78;;;-6.22;63.35
69780;BME280;57052;55.602;38.096;2024-02-16T04:28:35;102125.34;;;-6.19;63.42
69780;BME280;57052;55.602;38.096;2024-02-16T04:31:01;102123.56;;;-6.19;63.33
69780;BME280;57052;55.602;38.096;2024-02-16T04:33:27;102132.19;;;-6.17;63.23
69780;BME280;57052;55.602;38.096;2024-02-16T04:35:53;102123.44;;;-6.17;63.45
69780;BME280;57052;55.602;38.096;2024-02-16T04:38:18;102119.03;;;-6.17;62.90
69780;BME280;57052;55.602;38.096;2024-02-16T04:40:45;102125.94;;;-6.16;62.93
69780;BME280;57052;55.602;38.096;2024-02-16T04:43:11;102113.47;;;-6.25;62.77
69780;BME280;57052;55.602;38.096;2024-02-16T04:45:37;102125.22;;;-6.18;62.84
69780;BME280;57052;55.602;38.096;2024-02-16T04:48:06;102120.09;;;-6.19;62.78
69780;BME280;57052;55.602;38.096;2024-02-16T04:50:33;102125.94;;;-6.16;63.22
69780;BME280;57052;55.602;38.096;2024-02-16T04:52:59;102118.19;;;-6.17;63.45
69780;BME280;57052;55.602;38.096;2024-02-16T04:55:27;102116.47;;;-6.18;63.33
69780;BME280;57052;55.602;38.096;2024-02-16T04:57:54;102117.94;;;-6.14;63.29
69780;BME280;57052;55.602;38.096;2024-02-16T05:00:20;102117.09;;;-6.15;63.42
69780;BME280;57052;55.602;38.096;2024-02-16T05:02:46;102111.97;;;-6.16;63.35
69780;BME280;57052;55.602;38.096;2024-02-16T05:05:12;102110.88;;;-6.14;62.95
69780;BME280;57052;55.602;38.096;2024-02-16T05:07:38;102117.81;;;-6.13;63.64
69780;BME280;57052;55.602;38.096;2024-02-16T05:10:08;102108.25;;;-6.14;63.55
69780;BME280;57052;55.602;38.096;2024-02-16T05:12:33;102117.59;;;-6.10;62.75
69780;BME280;57052;55.602;38.096;2024-02-16T05:14:59;102112.44;;;-6.11;62.80
69780;BME280;57052;55.602;38.096;2024-02-16T05:17:25;102118.53;;;-6.11;63.12
69780;BME280;57052;55.602;38.096;2024-02-16T05:19:52;102119.28;;;-6.09;63.14
69780;BME280;57052;55.602;38.096;2024-02-16T05:22:19;102120.94;;;-6.08;63.00
69780;BME280;57052;55.602;38.096;2024-02-16T05:24:47;102117.47;;;-6.08;63.58
69780;BME280;57052;55.602;38.096;2024-02-16T05:27:13;102129.47;;;-6.04;63.46
69780;BME280;57052;55.602;38.096;2024-02-16T05:29:40;102121.56;;;-6.04;63.31
69780;BME280;57052;55.602;38.096;2024-02-16T05:32:06;102126.59;;;-6.01;63.17
69780;BME280;57052;55.602;38.096;2024-02-16T05:34:31;102119.44;;;-5.99;63.13
69780;BME280;57052;55.602;38.096;2024-02-16T05:37:06;102109.09;;;-6.02;63.04
69780;BME280;57052;55.602;38.096;2024-02-16T05:39:38;102124.56;;;-5.98;63.66
69780;BME280;57052;55.602;38.096;2024-02-16T05:42:20;102065.34;;;-6.27;63.08
69780;BME280;57052;55.602;38.096;2024-02-16T05:44:47;102098.69;;;-6.04;62.86
69780;BME280;57052;55.602;38.096;2024-02-16T05:47:15;102100.00;;;-5.98;63.14
69780;BME280;57052;55.602;38.096;2024-02-16T05:49:41;102108.38;;;-5.93;63.48
69780;BME280;57052;55.602;38.096;2024-02-16T05:52:06;102106.59;;;-5.93;62.98
69780;BME280;57052;55.602;38.096;2024-02-16T05:54:47;102103.13;;;-5.93;63.03
69780;BME280;57052;55.602;38.096;2024-02-16T05:57:14;102052.88;;;-6.25;63.37
69780;BME280;57052;55.602;38.096;2024-02-16T05:59:41;102118.47;;;-5.87;63.33
69780;BME280;57052;55.602;38.096;2024-02-16T06:02:07;102112.22;;;-5.86;63.28
69780;BME280;57052;55.602;38.096;2024-02-16T06:04:33;102096.78;;;-5.91;63.49
69780;BME280;57052;55.602;38.096;2024-02-16T06:06:59;102122.53;;;-5.83;63.63
69780;BME280;57052;55.602;38.096;2024-02-16T06:09:26;102120.72;;;-5.82;63.35
69780;BME280;57052;55.602;38.096;2024-02-16T06:11:52;102125.88;;;-5.81;63.10
69780;BME280;57052;55.602;38.096;2024-02-16T06:14:17;102127.44;;;-5.78;63.11
69780;BME280;57052;55.602;38.096;2024-02-16T06:16:43;102126.34;;;-5.76;62.76
69780;BME280;57052;55.602;38.096;2024-02-16T06:19:11;102127.91;;;-5.73;63.04
69780;BME280;57052;55.602;38.096;2024-02-16T06:21:37;102136.44;;;-5.70;63.02
69780;BME280;57052;55.602;38.096;2024-02-16T06:24:02;102110.03;;;-5.81;63.29
69780;BME280;57052;55.602;38.096;2024-02-16T06:26:28;102131.66;;;-5.65;63.01
69780;BME280;57052;55.602;38.096;2024-02-16T06:28:54;102125.44;;;-5.64;63.01
69780;BME280;57052;55.602;38.096;2024-02-16T06:31:19;102137.53;;;-5.61;62.82
69780;BME280;57052;55.602;38.096;2024-02-16T06:33:45;102135.72;;;-5.61;63.05
69780;BME280;57052;55.602;38.096;2024-02-16T06:36:10;102137.28;;;-5.58;63.13
69780;BME280;57052;55.602;38.096;2024-02-16T06:38:37;102140.91;;;-5.59;63.13
69780;BME280;57052;55.602;38.096;2024-02-16T06:41:03;102125.53;;;-5.65;63.29
69780;BME280;57052;55.602;38.096;2024-02-16T06:43:29;102140.41;;;-5.53;63.07
69780;BME280;57052;55.602;38.096;2024-02-16T06:45:55;102135.13;;;-5.53;63.40
69780;BME280;57052;55.602;38.096;2024-02-16T06:48:22;102137.53;;;-5.50;63.25
69780;BME280;57052;55.602;38.096;2024-02-16T06:50:48;102141.16;;;-5.51;62.92
69780;BME280;57052;55.602;38.096;2024-02-16T06:53:14;102146.41;;;-5.40;62.89
69780;BME280;57052;55.602;38.096;2024-02-16T06:55:40;102123.16;;;-5.46;63.05
69780;BME280;57052;55.602;38.096;2024-02-16T06:58:06;102146.06;;;-5.36;62.91
69780;BME280;57052;55.602;38.096;2024-02-16T07:00:31;102134.06;;;-5.40;63.34
69780;BME280;57052;55.602;38.096;2024-02-16T07:02:57;102139.97;;;-5.36;62.85
69780;BME280;57052;55.602;38.096;2024-02-16T07:05:22;102154.59;;;-5.32;63.03
69780;BME280;57052;55.602;38.096;2024-02-16T07:07:48;102144.72;;;-5.30;62.85
69780;BME280;57052;55.602;38.096;2024-02-16T07:10:15;102147.38;;;-5.30;63.22
69780;BME280;57052;55.602;38.096;2024-02-16T07:12:41;102141.25;;;-5.31;63.02
69780;BME280;57052;55.602;38.096;2024-02-16T07:15:07;102154.69;;;-5.23;62.92
69780;BME280;57052;55.602;38.096;2024-02-16T07:17:34;102144.75;;;-5.19;62.77
69780;BME280;57052;55.602;38.096;2024-02-16T07:20:00;102160.34;;;-5.16;62.94
69780;BME280;57052;55.602;38.096;2024-02-16T07:22:30;102143.28;;;-5.12;62.87
69780;BME280;57052;55.602;38.096;2024-02-16T07:24:55;102143.16;;;-5.10;62.67
69780;BME280;57052;55.602;38.096;2024-02-16T07:27:21;102138.50;;;-5.07;62.47
69780;BME280;57052;55.602;38.096;2024-02-16T07:29:47;102084.78;;;-5.39;62.79
69780;BME280;57052;55.602;38.096;2024-02-16T07:32:12;102118.69;;;-5.12;62.75
69780;BME280;57052;55.602;38.096;2024-02-16T07:34:38;102120.47;;;-5.13;62.54
69780;BME280;57052;55.602;38.096;2024-02-16T07:37:04;102138.81;;;-5.00;62.22
69780;BME280;57052;55.602;38.096;2024-02-16T07:39:30;102134.38;;;-5.00;62.60
69780;BME280;57052;55.602;38.096;2024-02-16T07:41:56;102144.81;;;-4.98;62.56
69780;BME280;57052;55.602;38.096;2024-02-16T07:44:21;102144.56;;;-4.95;62.47
69780;BME280;57052;55.602;38.096;2024-02-16T07:46:47;102094.13;;;-5.24;62.46
69780;BME280;57052;55.602;38.096;2024-02-16T07:49:15;102136.28;;;-4.91;62.48
69780;BME280;57052;55.602;38.096;2024-02-16T07:51:40;102139.06;;;-4.92;62.52
69780;BME280;57052;55.602;38.096;2024-02-16T07:54:07;102136.03;;;-4.88;62.61
69780;BME280;57052;55.602;38.096;2024-02-16T07:56:33;102139.53;;;-4.87;62.50
69780;BME280;57052;55.602;38.096;2024-02-16T07:58:59;102139.28;;;-4.84;62.44
69780;BME280;57052;55.602;38.096;2024-02-16T08:01:25;102110.50;;;-4.98;62.28
69780;BME280;57052;55.602;38.096;2024-02-16T08:03:52;102103.31;;;-4.96;62.50
69780;BME280;57052;55.602;38.096;2024-02-16T08:06:18;102131.47;;;-4.75;62.31
69780;BME280;57052;55.602;38.096;2024-02-16T08:08:49;102126.88;;;-4.73;62.07
69780;BME280;57052;55.602;38.096;2024-02-16T08:11:15;102113.72;;;-4.84;62.25
69780;BME280;57052;55.602;38.096;2024-02-16T08:13:40;102125.69;;;-4.69;62.25
69780;BME280;57052;55.602;38.096;2024-02-16T08:16:06;102130.00;;;-4.68;62.01
69780;BME280;57052;55.602;38.096;2024-02-16T08:18:33;102117.63;;;-4.67;61.97
69780;BME280;57052;55.602;38.096;2024-02-16T08:20:59;102117.50;;;-4.66;62.15
69780;BME280;57052;55.602;38.096;2024-02-16T08:23:25;102120.03;;;-4.64;62.33
69780;BME280;57052;55.602;38.096;2024-02-16T08:25:50;102125.88;;;-4.61;62.22
69780;BME280;57052;55.602;38.096;2024-02-16T08:28:16;102143.03;;;-4.55;62.10
69780;BME280;57052;55.602;38.096;2024-02-16T08:30:42;102146.66;;;-4.56;61.85
69780;BME280;57052;55.602;38.096;2024-02-16T08:33:10;102148.31;;;-4.55;61.82
69780;BME280;57052;55.602;38.096;2024-02-16T08:35:35;102147.38;;;-4.54;62.08
69780;BME280;57052;55.602;38.096;2024-02-16T08:38:03;102152.66;;;-4.54;61.88
69780;BME280;57052;55.602;38.096;2024-02-16T08:40:29;102142.72;;;-4.62;61.77
69780;BME280;57052;55.602;38.096;2024-02-16T08:42:54;102159.59;;;-4.53;61.81
69780;BME280;57052;55.602;38.096;2024-02-16T08:45:20;102161.44;;;-4.53;62.13
69780;BME280;57052;55.602;38.096;2024-02-16T08:47:46;102170.16;;;-4.53;61.81
69780;BME280;57052;55.602;38.096;2024-02-16T08:50:11;102158.78;;;-4.53;61.96
69780;BME280;57052;55.602;38.096;2024-02-16T08:52:37;102146.44;;;-4.64;61.58
69780;BME280;57052;55.602;38.096;2024-02-16T08:55:03;102147.16;;;-4.62;61.90
69780;BME280;57052;55.602;38.096;2024-02-16T08:57:31;102164.66;;;-4.50;61.87
69780;BME280;57052;55.602;38.096;2024-02-16T08:59:56;102168.97;;;-4.49;61.77
69780;BME280;57052;55.602;38.096;2024-02-16T09:02:22;102168.63;;;-4.56;61.82
69780;BME280;57052;55.602;38.096;2024-02-16T09:04:48;102160.81;;;-4.57;61.70
69780;BME280;57052;55.602;38.096;2024-02-16T09:07:14;102162.63;;;-4.58;61.81
69780;BME280;57052;55.602;38.096;2024-02-16T09:09:39;102176.66;;;-4.46;61.40
69780;BME280;57052;55.602;38.096;2024-02-16T09:12:05;102167.19;;;-4.48;61.54
69780;BME280;57052;55.602;38.096;2024-02-16T09:14:31;102171.00;;;-4.41;61.40
69780;BME280;57052;55.602;38.096;2024-02-16T09:16:57;102158.72;;;-4.42;61.49
69780;BME280;57052;55.602;38.096;2024-02-16T09:19:23;102141.09;;;-4.53;61.61
69780;BME280;57052;55.602;38.096;2024-02-16T09:21:49;102143.50;;;-4.50;61.40
69780;BME280;57052;55.602;38.096;2024-02-16T09:24:17;102148.16;;;-4.42;61.57
69780;BME280;57052;55.602;38.096;2024-02-16T09:26:44;102150.88;;;-4.33;61.62
69780;BME280;57052;55.602;38.096;2024-02-16T09:29:13;102157.63;;;-4.29;61.62
69780;BME280;57052;55.602;38.096;2024-02-16T09:31:40;102164.31;;;-4.25;61.46
69780;BME280;57052;55.602;38.096;2024-02-16T09:34:06;102139.50;;;-4.33;61.28
69780;BME280;57052;55.602;38.096;2024-02-16T09:36:31;102152.03;;;-4.26;61.31
69780;BME280;57052;55.602;38.096;2024-02-16T09:38:57;102132.53;;;-4.34;61.35
69780;BME280;57052;55.602;38.096;2024-02-16T09:41:23;102158.53;;;-4.19;61.45
69780;BME280;57052;55.602;38.096;2024-02-16T09:43:50;102144.00;;;-4.24;61.28
69780;BME280;57052;55.602;38.096;2024-02-16T09:46:19;102125.28;;;-4.32;61.36
69780;BME280;57052;55.602;38.096;2024-02-16T09:48:45;102156.19;;;-4.12;61.56
69780;BME280;57052;55.602;38.096;2024-02-16T09:51:14;102158.59;;;-4.09;61.44
69780;BME280;57052;55.602;38.096;2024-02-16T09:53:40;102150.53;;;-4.08;61.41
69780;BME280;57052;55.602;38.096;2024-02-16T09:56:06;102139.09;;;-4.08;61.14
69780;BME280;57052;55.602;38.096;2024-02-16T09:58:35;102143.44;;;-4.07;60.91
69780;BME280;57052;55.602;38.096;2024-02-16T10:01:02;102134.41;;;-4.05;60.90
69780;BME280;57052;55.602;38.096;2024-02-16T10:03:30;102128.28;;;-4.05;61.08
69780;BME280;57052;55.602;38.096;2024-02-16T10:06:08;102105.66;;;-4.19;60.48
69780;BME280;57052;55.602;38.096;2024-02-16T10:08:46;102127.44;;;-4.06;60.94
69780;BME280;57052;55.602;38.096;2024-02-16T10:11:14;102117.84;;;-4.07;60.92
69780;BME280;57052;55.602;38.096;2024-02-16T10:13:40;102122.72;;;-4.02;60.58
69780;BME280;57052;55.602;38.096;2024-02-16T10:16:07;102114.22;;;-4.06;60.83
69780;BME280;57052;55.602;38.096;2024-02-16T10:18:38;102116.59;;;-4.03;60.64
69780;BME280;57052;55.602;38.096;2024-02-16T10:21:04;102107.97;;;-4.05;60.72
69780;BME280;57052;55.602;38.096;2024-02-16T10:23:30;102095.34;;;-4.01;60.46
69780;BME280;57052;55.602;38.096;2024-02-16T10:25:57;102089.47;;;-4.05;60.43
69780;BME280;57052;55.602;38.096;2024-02-16T10:28:24;102105.13;;;-3.92;60.37
69780;BME280;57052;55.602;38.096;2024-02-16T10:30:58;102092.75;;;-3.92;60.60
69780;BME280;57052;55.602;38.096;2024-02-16T10:33:27;102088.75;;;-3.86;60.58
69780;BME280;57052;55.602;38.096;2024-02-16T10:35:55;102096.41;;;-3.83;60.20
69780;BME280;57052;55.602;38.096;2024-02-16T10:38:22;102091.09;;;-3.83;60.54
69780;BME280;57052;55.602;38.096;2024-02-16T10:40:50;102096.13;;;-3.80;60.34
69780;BME280;57052;55.602;38.096;2024-02-16T10:43:17;102101.19;;;-3.77;60.32
69780;BME280;57052;55.602;38.096;2024-02-16T10:45:43;102095.63;;;-3.74;60.06
69780;BME280;57052;55.602;38.096;2024-02-16T10:48:12;102066.34;;;-3.82;60.04
69780;BME280;57052;55.602;38.096;2024-02-16T10:50:41;102080.72;;;-3.75;60.19
69780;BME280;57052;55.602;38.096;2024-02-16T10:53:21;102089.34;;;-3.73;60.14
69780;BME280;57052;55.602;38.096;2024-02-16T10:55:49;102103.88;;;-3.67;60.24
69780;BME280;57052;55.602;38.096;2024-02-16T10:58:16;102080.53;;;-3.83;59.96
69780;BME280;57052;55.602;38.096;2024-02-16T11:00:52;102094.78;;;-3.74;60.27
69780;BME280;57052;55.602;38.096;2024-02-16T11:03:22;102114.03;;;-3.63;59.81
69780;BME280;57052;55.602;38.096;2024-02-16T11:05:51;102107.22;;;-3.65;60.19
69780;BME280;57052;55.602;38.096;2024-02-16T11:08:21;102102.91;;;-3.66;60.14
69780;BME280;57052;55.602;38.096;2024-02-16T11:10:58;102106.41;;;-3.66;59.68
69780;BME280;57052;55.602;38.096;2024-02-16T11:13:25;102087.00;;;-3.76;60.08
69780;BME280;57052;55.602;38.096;2024-02-16T11:16:07;102103.69;;;-3.75;59.88
69780;BME280;57052;55.602;38.096;2024-02-16T11:18:37;102116.69;;;-3.63;59.84
69780;BME280;57052;55.602;38.096;2024-02-16T11:21:03;102115.16;;;-3.65;59.72
69780;BME280;57052;55.602;38.096;2024-02-16T11:23:30;102122.97;;;-3.64;60.13
69780;BME280;57052;55.602;38.096;2024-02-16T11:26:04;102116.00;;;-3.65;59.56
69780;BME280;57052;55.602;38.096;2024-02-16T11:28:34;102115.44;;;-3.68;59.90
69780;BME280;57052;55.602;38.096;2024-02-16T11:31:01;102106.25;;;-3.64;60.31
69780;BME280;57052;55.602;38.096;2024-02-16T11:33:28;102108.31;;;-3.68;60.23
69780;BME280;57052;55.602;38.096;2024-02-16T11:36:04;102103.03;;;-3.68;60.04
69780;BME280;57052;55.602;38.096;2024-02-16T11:38:34;102104.25;;;-3.72;59.78
69780;BME280;57052;55.602;38.096;2024-02-16T11:41:02;102104.84;;;-3.68;59.96
69780;BME280;57052;55.602;38.096;2024-02-16T11:43:28;102087.03;;;-3.66;60.28
69780;BME280;57052;55.602;38.096;2024-02-16T11:45:54;102096.63;;;-3.65;60.40
69780;BME280;57052;55.602;38.096;2024-02-16T11:48:24;102090.53;;;-3.66;59.66
69780;BME280;57052;55.602;38.096;2024-02-16T11:51:00;102096.06;;;-3.69;59.46
69780;BME280;57052;55.602;38.096;2024-02-16T11:53:27;102101.91;;;-3.65;59.68
69780;BME280;57052;55.602;38.096;2024-02-16T11:55:53;102036.16;;;-4.00;59.79
69780;BME280;57052;55.602;38.096;2024-02-16T11:58:19;102089.69;;;-3.66;59.95
69780;BME280;57052;55.602;38.096;2024-02-16T12:00:48;102083.41;;;-3.65;60.14
69780;BME280;57052;55.602;38.096;2024-02-16T12:03:24;102089.78;;;-3.68;59.55
69780;BME280;57052;55.602;38.096;2024-02-16T12:05:58;102077.66;;;-3.70;59.66
69780;BME280;57052;55.602;38.096;2024-02-16T12:08:32;102087.69;;;-3.74;59.68
69780;BME280;57052;55.602;38.096;2024-02-16T12:13:42;102092.84;;;-3.72;59.78
69780;BME280;57052;55.602;38.096;2024-02-16T12:16:08;102098.28;;;-3.74;60.00
69780;BME280;57052;55.602;38.096;2024-02-16T12:18:33;102103.56;;;-3.74;59.95
69780;BME280;57052;55.602;38.096;2024-02-16T12:21:06;102092.41;;;-3.77;60.13
69780;BME280;57052;55.602;38.096;2024-02-16T12:23:33;102096.72;;;-3.76;60.14
69780;BME280;57052;55.602;38.096;2024-02-16T12:25:59;102079.97;;;-3.86;60.73
69780;BME280;57052;55.602;38.096;2024-02-16T12:28:26;102082.22;;;-3.82;60.14
69780;BME280;57052;55.602;38.096;2024-02-16T12:30:58;102101.31;;;-3.78;60.37
69780;BME280;57052;55.602;38.096;2024-02-16T12:33:24;102096.97;;;-3.79;60.37
69780;BME280;57052;55.602;38.096;2024-02-16T12:35:49;102097.81;;;-3.79;60.41
69780;BME280;57052;55.602;38.096;2024-02-16T12:38:15;102094.47;;;-3.81;60.45
69780;BME280;57052;55.602;38.096;2024-02-16T12:40:47;102104.78;;;-3.78;60.52